Time;durP1;ratioP1;P1;durP2;ratioP2;P2;SDS_P1;SDS_P2;PMS_P1;PMS_P2;Temp;Humidity;BMP_temperature;BMP_pressure;BME280_temperature;BME280_humidity;BME280_pressure;Samples;Min_cycle;Max_cycle;Signal;HPM_P1;HPM_P2
2021/12/23 00:00:38;;;;;;;11.65;7.30;;;;;;;28.42;63.12;101105.06;5017192;28;66272;-35
2021/12/23 00:03:09;;;;;;;14.35;8.32;;;;;;;28.40;62.78;101080.09;5014663;28;70477;-35
2021/12/23 00:05:39;;;;;;;21.85;8.82;;;;;;;28.51;63.50;101097.63;5018418;28;66462;-36
2021/12/23 00:08:10;;;;;;;15.05;8.30;;;;;;;28.61;64.01;101100.81;5018776;28;69678;-35
2021/12/23 00:10:41;;;;;;;16.80;8.55;;;;;;;28.66;64.29;101111.00;5020713;28;66003;-35
2021/12/23 00:13:13;;;;;;;9.20;8.27;;;;;;;28.52;65.18;101102.81;5019402;28;69899;-36
2021/12/23 00:24:00;;;;;;;30.98;12.18;;;;;;;28.48;67.26;101131.25;5017475;28;70290;-35
2021/12/23 00:26:31;;;;;;;17.45;10.93;;;;;;;28.49;66.66;101137.47;5018742;28;66006;-34
2021/12/23 00:29:02;;;;;;;14.15;10.20;;;;;;;28.43;67.88;101143.66;5019095;28;70495;-34
2021/12/23 00:31:33;;;;;;;18.23;10.38;;;;;;;28.37;67.52;101142.56;5017079;28;66368;-34
2021/12/23 00:34:04;;;;;;;17.42;10.05;;;;;;;28.48;66.62;101142.03;5017271;28;70232;-34
2021/12/23 00:36:36;;;;;;;17.40;9.57;;;;;;;28.62;66.22;101158.31;5018799;28;65930;-36
2021/12/23 00:39:08;;;;;;;11.02;7.60;;;;;;;28.66;66.09;101164.97;5018604;28;70460;-35
2021/12/23 00:41:41;;;;;;;12.38;8.52;;;;;;;28.71;65.54;101167.91;5021022;28;66625;-35
2021/12/23 00:44:13;;;;;;;11.30;8.02;;;;;;;28.79;65.61;101170.47;5019132;28;69382;-34
2021/12/23 00:46:44;;;;;;;12.65;8.40;;;;;;;28.81;65.48;101173.81;5019940;28;66174;-34
2021/12/23 00:49:15;;;;;;;11.20;7.93;;;;;;;28.84;65.29;101168.00;5018350;28;70170;-34
2021/12/23 00:51:46;;;;;;;14.25;8.10;;;;;;;28.87;64.77;101173.00;5016001;28;66741;-35
2021/12/23 00:54:17;;;;;;;11.32;8.13;;;;;;;28.92;64.87;101175.94;5015130;28;69800;-34
2021/12/23 00:56:50;;;;;;;8.40;7.43;;;;;;;28.94;64.83;101173.84;5015994;28;65374;-41
2021/12/23 00:59:21;;;;;;;7.70;7.10;;;;;;;28.99;64.53;101185.94;5010580;28;69373;-34
2021/12/23 01:01:52;;;;;;;8.70;7.57;;;;;;;29.01;64.66;101181.19;5015649;28;66573;-35
2021/12/23 01:04:28;;;;;;;9.52;7.75;;;;;;;29.01;64.69;101183.88;5000526;28;69043;-35
2021/12/23 01:06:59;;;;;;;8.15;7.45;;;;;;;29.05;64.35;101179.75;5016386;28;65592;-35
2021/12/23 01:09:30;;;;;;;7.90;7.25;;;;;;;29.07;64.16;101188.50;5017208;28;70769;-34
2021/12/23 01:12:01;;;;;;;8.27;7.47;;;;;;;29.03;64.12;101177.28;5011952;28;65631;-37
2021/12/23 01:14:42;;;;;;;10.63;7.18;;;;;;;29.10;64.40;101190.81;5015826;28;69915;-34
2021/12/23 01:19:54;;;;;;;7.47;6.82;;;;;;;29.04;64.05;101164.59;5011548;28;70447;-34
2021/12/23 01:22:25;;;;;;;7.68;7.07;;;;;;;29.15;63.98;101180.22;5013265;28;66148;-35
2021/12/23 01:24:57;;;;;;;7.63;6.93;;;;;;;29.18;64.07;101179.81;5014726;28;68970;-34
2021/12/23 01:27:29;;;;;;;8.40;7.15;;;;;;;29.16;63.86;101171.91;5005320;28;65208;-35
2021/12/23 01:30:02;;;;;;;10.35;6.85;;;;;;;29.17;64.13;101175.47;5014257;28;70938;-35
2021/12/23 01:32:33;;;;;;;14.85;6.45;;;;;;;29.23;64.15;101182.75;5015341;28;65428;-35
2021/12/23 01:35:05;;;;;;;8.13;7.32;;;;;;;29.05;64.25;101150.03;5015228;28;70201;-35
2021/12/23 01:37:38;;;;;;;8.67;7.53;;;;;;;29.26;63.64;101181.53;5005375;28;65323;-35
2021/12/23 01:40:14;;;;;;;8.15;6.28;;;;;;;29.24;63.60;101179.00;5011016;28;69291;-36
2021/12/23 01:42:48;;;;;;;7.65;6.93;;;;;;;29.29;63.42;101187.34;4996941;28;66633;-35
2021/12/23 01:45:24;;;;;;;8.40;7.03;;;;;;;29.07;64.10;101134.47;5009676;28;70480;-35
2021/12/23 01:47:58;;;;;;;7.97;6.97;;;;;;;28.99;63.49;101115.72;5011633;28;65926;-35
2021/12/23 01:50:30;;;;;;;8.35;6.90;;;;;;;29.26;63.81;101160.72;5007585;28;69059;-33
2021/12/23 01:53:02;;;;;;;8.20;7.50;;;;;;;29.33;63.45;101171.56;5013687;28;65912;-36
2021/12/23 01:55:35;;;;;;;8.10;7.30;;;;;;;29.35;63.41;101169.50;5024609;28;70049;-36
2021/12/23 01:58:07;;;;;;;7.38;6.75;;;;;;;29.39;63.36;101171.59;5013522;28;66605;-35
2021/12/23 02:00:44;;;;;;;8.10;7.30;;;;;;;29.32;63.88;101159.91;5009949;28;69221;-35
2021/12/23 02:03:16;;;;;;;7.75;7.05;;;;;;;29.42;63.38;101169.50;5015469;28;66768;-35
2021/12/23 02:05:52;;;;;;;7.72;7.00;;;;;;;29.44;63.50;101181.78;5011421;28;70481;-35
2021/12/23 02:08:37;;;;;;;10.45;6.38;;;;;;;29.45;63.61;101188.00;5014251;28;65686;-35
2021/12/23 02:11:11;;;;;;;7.18;6.72;;;;;;;29.17;63.66;101132.25;5011065;28;70031;-36
2021/12/23 02:13:43;;;;;;;8.05;7.35;;;;;;;29.46;63.53;101177.00;5001999;28;66448;-35
2021/12/23 02:16:15;;;;;;;7.33;6.80;;;;;;;29.44;63.32;101179.06;4991315;28;69879;-34
2021/12/23 02:18:48;;;;;;;7.90;7.20;;;;;;;29.30;63.23;101151.16;5007292;28;65476;-35
2021/12/23 02:21:19;;;;;;;8.27;7.15;;;;;;;29.48;63.53;101171.41;5011515;28;69999;-35
2021/12/23 02:23:51;;;;;;;7.85;6.95;;;;;;;29.56;63.56;101192.81;5014066;28;64985;-35
2021/12/23 02:26:27;;;;;;;7.85;6.70;;;;;;;29.58;62.90;101196.16;5008139;28;70076;-35
2021/12/23 02:28:59;;;;;;;8.40;7.60;;;;;;;29.59;63.23;101192.44;5012058;28;65693;-33
2021/12/23 02:31:33;;;;;;;8.32;7.35;;;;;;;29.59;63.40;101181.63;5015552;28;70277;-35
2021/12/23 02:34:04;;;;;;;8.57;7.77;;;;;;;29.60;63.41;101185.97;5012626;28;66015;-35
2021/12/23 02:36:35;;;;;;;10.90;7.20;;;;;;;29.62;63.46;101186.63;5014482;28;69208;-36
2021/12/23 02:39:09;;;;;;;9.77;8.82;;;;;;;29.62;63.11;101182.03;5012783;28;65446;-35
2021/12/23 02:41:43;;;;;;;12.30;11.20;;;;;;;29.68;63.39;101179.59;5010872;28;69975;-35
2021/12/23 02:44:18;;;;;;;9.05;8.20;;;;;;;29.64;62.89;101173.75;5001310;28;65900;-35
2021/12/23 02:46:49;;;;;;;10.13;9.07;;;;;;;29.69;63.29;101173.13;4996837;28;69578;-35
2021/12/23 02:49:21;;;;;;;9.80;8.88;;;;;;;29.70;62.83;101178.34;5005344;28;66198;-35
2021/12/23 02:51:54;;;;;;;9.85;9.05;;;;;;;29.73;62.61;101166.28;4998675;28;69030;-35
2021/12/23 02:54:28;;;;;;;9.40;8.63;;;;;;;29.73;62.62;101156.31;5015496;28;65355;-35
2021/12/23 02:57:00;;;;;;;9.60;8.82;;;;;;;29.74;63.21;101157.13;5009920;28;69712;-37
2021/12/23 02:59:31;;;;;;;10.63;9.63;;;;;;;29.75;63.15;101156.91;5010057;28;66136;-35
2021/12/23 03:02:02;;;;;;;11.15;9.68;;;;;;;29.78;63.00;101153.81;5009147;28;70270;-34
2021/12/23 03:04:33;;;;;;;12.27;10.38;;;;;;;29.76;62.72;101150.47;5012434;28;65308;-36
2021/12/23 03:07:04;;;;;;;12.30;11.05;;;;;;;29.82;62.66;101154.22;4995830;28;71207;-34
2021/12/23 03:09:35;;;;;;;11.82;10.63;;;;;;;29.86;62.88;101157.34;5013842;28;66963;-36
2021/12/23 03:12:07;;;;;;;12.10;11.00;;;;;;;29.82;62.65;101146.94;5014196;28;70357;-36
2021/12/23 03:14:40;;;;;;;13.07;11.63;;;;;;;29.81;62.57;101137.19;5014772;28;67162;-35
2021/12/23 03:17:11;;;;;;;13.10;11.88;;;;;;;29.82;62.47;101141.53;5010251;28;70525;-36
2021/12/23 03:19:42;;;;;;;13.23;11.82;;;;;;;29.92;62.73;101143.00;4987425;28;66009;-36
2021/12/23 03:22:15;;;;;;;14.55;11.65;;;;;;;29.93;62.82;101125.75;5012703;28;68662;-35
2021/12/23 03:24:45;;;;;;;15.23;12.13;;;;;;;29.93;62.82;101129.28;5016287;28;65136;-36
2021/12/23 03:27:22;;;;;;;17.70;13.13;;;;;;;29.96;62.62;101125.31;5012453;28;70048;-34
2021/12/23 03:29:54;;;;;;;12.85;11.68;;;;;;;29.98;62.52;101118.66;5019003;28;67306;-36
2021/12/23 03:32:26;;;;;;;12.98;11.68;;;;;;;30.01;62.54;101126.38;5019050;28;70170;-36
2021/12/23 03:34:57;;;;;;;14.02;12.52;;;;;;;30.01;62.65;101109.31;5000489;28;66777;-35
2021/12/23 03:37:27;;;;;;;14.10;12.23;;;;;;;30.03;62.09;101118.03;5019374;28;70028;-36
2021/12/23 03:39:58;;;;;;;12.57;11.43;;;;;;;29.98;62.58;101102.44;5017663;28;66064;-35
2021/12/23 03:42:29;;;;;;;14.15;11.75;;;;;;;30.10;62.23;101124.28;5018312;28;69882;-35
2021/12/23 03:45:00;;;;;;;13.23;11.90;;;;;;;30.10;62.24;101113.44;5019043;28;66146;-36
2021/12/23 03:47:31;;;;;;;12.95;11.20;;;;;;;30.13;61.85;101113.03;5018818;28;69714;-36
2021/12/23 03:50:03;;;;;;;12.63;11.32;;;;;;;30.11;62.25;101098.88;5001284;28;66544;-35
2021/12/23 03:52:34;;;;;;;12.43;11.32;;;;;;;30.16;62.27;101112.59;5017789;28;69959;-34
2021/12/23 03:55:05;;;;;;;14.75;11.02;;;;;;;30.16;62.36;101104.50;5017647;28;66068;-34
2021/12/23 03:57:36;;;;;;;12.15;11.00;;;;;;;29.89;61.62;101037.94;5018028;28;71002;-34
2021/12/23 04:00:10;;;;;;;13.15;10.98;;;;;;;29.96;61.42;101044.19;5018478;28;65336;-35
2021/12/23 04:02:41;;;;;;;14.32;11.30;;;;;;;30.27;61.72;101093.06;5015374;28;69494;-35
2021/12/23 04:05:13;;;;;;;12.32;11.18;;;;;;;30.28;61.76;101078.50;5019038;28;65775;-36
2021/12/23 04:07:44;;;;;;;11.80;10.32;;;;;;;30.30;61.50;101074.75;5015088;28;68923;-35
2021/12/23 04:10:17;;;;;;;12.38;10.48;;;;;;;30.27;62.08;101079.53;5014014;28;66557;-36
2021/12/23 04:12:49;;;;;;;11.10;10.00;;;;;;;30.37;61.86;101075.53;5015502;28;69207;-35
2021/12/23 04:15:20;;;;;;;;;;;;;;;29.99;62.24;101078.91;5016432;28;66349;-35
2021/12/23 04:17:51;;;;;;;11.32;10.32;;;;;;;30.34;61.68;101075.97;5018182;28;69659;-34
2021/12/23 04:20:31;;;;;;;10.20;9.32;;;;;;;30.41;61.69;101076.78;5029225;28;67402;-35
2021/12/23 04:23:03;;;;;;;10.63;9.73;;;;;;;30.46;61.18;101080.53;5008560;28;69784;-35
2021/12/23 04:25:33;;;;;;;;;;;;;;;30.05;62.15;101083.50;5014838;28;66126;-35
2021/12/23 04:28:06;;;;;;;9.68;8.93;;;;;;;30.47;61.35;101081.34;5018529;28;69876;-35
2021/12/23 04:30:36;;;;;;;;;;;;;;;30.14;62.26;101089.50;5016452;28;65761;-35
2021/12/23 04:33:07;;;;;;;10.55;9.52;;;;;;;30.49;61.27;101095.50;5016819;28;70873;-36
2021/12/23 04:35:38;;;;;;;10.13;9.40;;;;;;;30.56;61.52;101090.88;5011071;28;66197;-36
2021/12/23 04:38:09;;;;;;;9.55;8.68;;;;;;;30.61;60.88;101087.56;5012865;28;70016;-36
2021/12/23 04:40:40;;;;;;;9.63;8.85;;;;;;;30.63;61.08;101080.88;5010866;28;65910;-36
2021/12/23 04:43:10;;;;;;;13.07;10.23;;;;;;;30.58;61.32;101064.44;5007066;28;70057;-34
2021/12/23 04:45:42;;;;;;;9.75;8.77;;;;;;;30.69;60.71;101071.91;5016909;28;66103;-35
2021/12/23 04:48:12;;;;;;;9.63;8.93;;;;;;;30.71;61.27;101071.69;5013283;28;69440;-36
2021/12/23 04:50:43;;;;;;;10.07;9.18;;;;;;;30.73;61.28;101064.19;5013518;28;66755;-35
2021/12/23 04:53:14;;;;;;;12.85;9.60;;;;;;;30.73;60.82;101054.19;5016009;28;71494;-35
2021/12/23 04:55:45;;;;;;;12.52;9.90;;;;;;;30.75;61.32;101050.44;5012267;28;66390;-35
2021/12/23 04:58:16;;;;;;;9.82;8.88;;;;;;;30.82;61.13;101053.97;5009196;28;70761;-34
2021/12/23 05:00:49;;;;;;;9.55;8.88;;;;;;;30.81;60.64;101041.47;5016390;28;66294;-35
2021/12/23 05:03:24;;;;;;;11.00;9.40;;;;;;;30.35;60.64;100947.75;4995802;28;70151;-34
2021/12/23 05:05:55;;;;;;;10.73;9.70;;;;;;;30.88;60.58;101029.56;5013986;28;66788;-35
2021/12/23 05:08:26;;;;;;;10.35;9.45;;;;;;;30.90;61.12;101026.63;5016582;28;69152;-35
2021/12/23 05:10:57;;;;;;;10.80;9.80;;;;;;;30.92;60.79;101024.53;5017508;28;65387;-36
2021/12/23 05:13:28;;;;;;;10.63;9.73;;;;;;;30.92;60.67;101014.53;5012804;28;70350;-33
2021/12/23 05:15:58;;;;;;;10.40;9.45;;;;;;;30.97;60.46;101016.56;4995918;28;66033;-35
2021/12/23 05:18:29;;;;;;;10.88;9.82;;;;;;;31.00;60.36;101005.31;5010647;28;70166;-34
2021/12/23 05:21:02;;;;;;;16.63;9.35;;;;;;;31.02;60.49;101003.22;5014531;28;66732;-35
2021/12/23 05:23:34;;;;;;;11.35;10.40;;;;;;;30.99;60.54;100987.41;5014537;28;69327;-35
2021/12/23 05:26:08;;;;;;;10.63;9.73;;;;;;;31.03;60.20;100990.50;5013886;28;66139;-35
2021/12/23 05:28:38;;;;;;;11.50;8.93;;;;;;;31.03;60.35;100976.94;5010013;28;70397;-35
2021/12/23 05:31:09;;;;;;;10.35;9.38;;;;;;;31.08;59.96;100980.66;5014378;28;66800;-35
2021/12/23 05:33:40;;;;;;;9.32;8.52;;;;;;;31.10;60.00;100962.31;5013461;28;70640;-34
2021/12/23 05:36:11;;;;;;;9.07;8.48;;;;;;;31.10;60.28;100961.50;5010998;28;65675;-36
2021/12/23 05:38:41;;;;;;;9.70;8.82;;;;;;;31.12;60.17;100954.81;5017377;28;70303;-34
2021/12/23 05:41:12;;;;;;;9.63;8.70;;;;;;;31.15;60.17;100953.53;5011769;28;65992;-36
2021/12/23 05:43:43;;;;;;;8.70;8.10;;;;;;;31.11;60.13;100942.28;5010320;28;68664;-35
2021/12/23 05:46:14;;;;;;;9.68;8.88;;;;;;;31.15;59.79;100943.53;5015434;28;67384;-35
2021/12/23 05:48:45;;;;;;;9.35;8.43;;;;;;;31.20;60.12;100939.31;5016830;28;70621;-35
2021/12/23 05:51:16;;;;;;;9.30;8.55;;;;;;;31.22;60.04;100931.78;5012947;28;65988;-35
2021/12/23 05:53:47;;;;;;;9.27;8.43;;;;;;;31.19;60.03;100915.97;5030718;28;70184;-35
2021/12/23 05:56:18;;;;;;;9.23;8.43;;;;;;;31.27;60.07;100921.94;5013726;28;65287;-36
2021/12/23 05:58:49;;;;;;;9.03;8.40;;;;;;;31.26;59.58;100917.59;5032845;28;70237;-34
2021/12/23 06:01:20;;;;;;;8.68;7.80;;;;;;;31.30;59.69;100913.38;5014501;28;65642;-36
2021/12/23 06:03:51;;;;;;;8.60;8.00;;;;;;;31.31;59.84;100903.34;5016847;28;70250;-35
2021/12/23 06:06:22;;;;;;;9.35;8.63;;;;;;;31.31;59.54;100903.34;5008362;28;65664;-35
2021/12/23 06:08:53;;;;;;;9.65;8.75;;;;;;;31.35;59.74;100893.72;5011741;28;70483;-35
2021/12/23 06:11:24;;;;;;;9.70;8.90;;;;;;;31.33;59.54;100883.09;5017013;28;65487;-36
2021/12/23 06:13:58;;;;;;;10.15;9.40;;;;;;;31.32;59.74;100872.50;5012468;28;69404;-35
2021/12/23 06:16:29;;;;;;;9.15;8.48;;;;;;;31.38;59.51;100882.47;5014753;28;65427;-34
2021/12/23 06:19:02;;;;;;;8.75;8.13;;;;;;;31.33;59.67;100849.75;5016333;28;69201;-35
2021/12/23 06:21:33;;;;;;;8.73;8.13;;;;;;;31.41;59.28;100864.94;4997121;28;65987;-36
2021/12/23 06:24:04;;;;;;;9.02;8.27;;;;;;;31.43;59.74;100858.25;5013315;28;69352;-36
2021/12/23 06:26:35;;;;;;;11.00;8.75;;;;;;;31.44;59.18;100857.16;5015922;28;65883;-35
2021/12/23 06:29:07;;;;;;;8.95;8.25;;;;;;;31.40;59.53;100837.00;5014259;28;70209;-35
2021/12/23 06:31:38;;;;;;;9.02;8.32;;;;;;;31.46;59.15;100844.22;5015706;28;66429;-35
2021/12/23 06:34:09;;;;;;;9.00;8.40;;;;;;;31.50;59.47;100834.59;5028015;28;69972;-35
2021/12/23 06:36:42;;;;;;;8.68;8.05;;;;;;;31.50;59.13;100820.19;5015859;28;66419;-35
2021/12/23 06:39:13;;;;;;;8.93;8.15;;;;;;;31.45;59.37;100818.16;5015225;28;70042;-36
2021/12/23 06:41:44;;;;;;;7.78;7.05;;;;;;;31.55;59.01;100826.59;5015779;28;65716;-35
2021/12/23 06:44:15;;;;;;;8.60;7.88;;;;;;;31.55;59.36;100812.22;5013604;28;70207;-35
2021/12/23 06:46:45;;;;;;;8.50;7.85;;;;;;;31.57;58.96;100821.78;5016324;28;66196;-35
2021/12/23 06:49:18;;;;;;;7.72;7.03;;;;;;;31.59;59.06;100816.97;5012926;28;70382;-35
2021/12/23 06:51:49;;;;;;;8.27;7.43;;;;;;;31.63;58.81;100811.09;5010737;28;66449;-35
2021/12/23 06:54:20;;;;;;;8.32;7.22;;;;;;;31.65;59.23;100811.66;5015135;28;70896;-36
2021/12/23 06:56:51;;;;;;;7.97;7.28;;;;;;;31.66;59.05;100797.06;5014747;28;67447;-35
2021/12/23 06:59:22;;;;;;;7.75;7.15;;;;;;;31.71;59.15;100794.53;5014909;28;71586;-33
2021/12/23 07:01:52;;;;;;;7.57;6.85;;;;;;;31.70;58.77;100792.84;5016913;28;65630;-35
2021/12/23 07:04:28;;;;;;;7.18;6.78;;;;;;;31.73;58.80;100792.38;5034267;28;70293;-35
2021/12/23 07:07:09;;;;;;;7.05;6.63;;;;;;;31.76;58.85;100781.06;5016470;28;66197;-33
2021/12/23 07:09:45;;;;;;;8.38;6.60;;;;;;;31.58;58.90;100752.94;5016923;28;70450;-36
2021/12/23 07:12:16;;;;;;;6.85;6.25;;;;;;;31.80;58.97;100777.69;5013606;28;66857;-34
2021/12/23 07:14:47;;;;;;;6.85;6.20;;;;;;;31.78;58.98;100773.53;5017822;28;69420;-35
2021/12/23 07:17:18;;;;;;;7.47;6.70;;;;;;;31.88;58.47;100773.00;5019410;28;65040;-35
2021/12/23 07:19:49;;;;;;;6.77;6.27;;;;;;;31.88;58.49;100771.13;5016528;28;69191;-35
2021/12/23 07:22:20;;;;;;;6.28;5.78;;;;;;;31.87;58.47;100766.72;5015068;28;65410;-34
2021/12/23 07:24:51;;;;;;;5.95;5.65;;;;;;;31.90;58.58;100751.88;5013904;28;70226;-35
2021/12/23 07:27:22;;;;;;;6.50;6.10;;;;;;;31.96;58.48;100759.97;5017461;28;67045;-34
2021/12/23 07:29:52;;;;;;;8.37;6.20;;;;;;;31.98;58.61;100757.88;5019723;28;69460;-34
2021/12/23 07:32:23;;;;;;;5.88;5.47;;;;;;;32.01;58.57;100767.41;5014336;28;65457;-34
2021/12/23 07:34:54;;;;;;;8.65;5.93;;;;;;;32.02;58.57;100756.34;5018392;28;69672;-35
2021/12/23 07:37:25;;;;;;;6.28;5.72;;;;;;;32.04;58.73;100758.84;5020188;28;67394;-35
2021/12/23 07:39:57;;;;;;;6.68;5.88;;;;;;;32.04;58.46;100756.94;5015817;28;69705;-35
2021/12/23 07:42:32;;;;;;;5.55;5.18;;;;;;;32.02;58.26;100741.94;5019732;28;66295;-34
2021/12/23 07:45:05;;;;;;;5.63;5.22;;;;;;;32.10;58.41;100749.75;5018499;28;69159;-34
2021/12/23 07:47:36;;;;;;;5.78;5.38;;;;;;;32.13;58.22;100737.63;5017688;28;66133;-34
2021/12/23 07:50:07;;;;;;;5.80;5.40;;;;;;;32.15;58.26;100751.75;5013455;28;69444;-35
2021/12/23 07:52:38;;;;;;;5.90;5.40;;;;;;;32.16;58.59;100739.88;5014294;28;65584;-35
2021/12/23 07:55:09;;;;;;;12.77;6.15;;;;;;;32.23;58.13;100743.28;5016718;28;69418;-35
2021/12/23 07:57:42;;;;;;;8.63;6.43;;;;;;;32.25;58.21;100735.75;5018711;28;66336;-34
2021/12/23 08:00:16;;;;;;;9.20;6.43;;;;;;;32.19;58.20;100720.41;5016701;28;70454;-35
2021/12/23 08:02:47;;;;;;;11.20;6.47;;;;;;;32.28;57.77;100736.09;5019548;28;66090;-35
2021/12/23 08:05:18;;;;;;;13.80;7.22;;;;;;;32.26;57.52;100726.53;5018402;28;69314;-35
2021/12/23 08:07:49;;;;;;;11.73;7.90;;;;;;;32.37;57.71;100733.03;5017404;28;66186;-35
2021/12/23 08:10:20;;;;;;;9.57;6.88;;;;;;;32.40;57.74;100736.13;5018394;28;69784;-35
2021/12/23 08:12:50;;;;;;;9.80;7.00;;;;;;;32.46;57.38;100737.94;5014659;28;66466;-35
2021/12/23 08:15:21;;;;;;;10.55;7.05;;;;;;;32.42;57.43;100720.41;5013310;28;70738;-35
2021/12/23 08:17:52;;;;;;;8.43;7.05;;;;;;;32.53;57.48;100743.25;5017348;28;65429;-36
2021/12/23 08:20:23;;;;;;;8.95;6.63;;;;;;;32.54;57.55;100727.78;5015314;28;69967;-35
2021/12/23 08:22:54;;;;;;;10.30;6.88;;;;;;;32.63;57.39;100740.78;5017353;28;67028;-35
2021/12/23 08:25:25;;;;;;;11.75;7.45;;;;;;;32.65;57.46;100741.38;5015323;28;70746;-36
2021/12/23 08:27:56;;;;;;;8.37;6.23;;;;;;;32.71;56.97;100742.31;5016909;28;65954;-35
2021/12/23 08:30:28;;;;;;;8.30;6.38;;;;;;;32.75;57.40;100743.50;5014190;28;70033;-36
2021/12/23 08:32:58;;;;;;;;;;;;;;;32.54;57.45;100744.06;5014213;28;66421;-35
2021/12/23 08:35:29;;;;;;;9.02;6.55;;;;;;;32.60;56.97;100700.53;5011379;28;71397;-36
2021/12/23 08:38:01;;;;;;;8.90;5.85;;;;;;;32.88;56.80;100739.72;5016154;28;66354;-36
2021/12/23 08:40:33;;;;;;;14.50;6.68;;;;;;;32.94;56.97;100733.31;5016531;28;69491;-36
2021/12/23 08:43:04;;;;;;;;;;;;;;;32.71;57.28;100736.91;5016780;28;66511;-35
2021/12/23 08:45:35;;;;;;;7.68;5.55;;;;;;;33.00;56.63;100732.41;5019986;28;70353;-36
2021/12/23 08:48:06;;;;;;;7.20;5.85;;;;;;;33.05;56.43;100732.53;5015791;28;65073;-35
2021/12/23 08:50:37;;;;;;;7.30;5.80;;;;;;;33.10;56.31;100731.81;5016381;28;69437;-36
2021/12/23 08:53:08;;;;;;;6.10;5.50;;;;;;;33.15;56.22;100745.47;5017229;28;65839;-36
2021/12/23 08:55:39;;;;;;;10.95;5.30;;;;;;;33.16;56.43;100730.84;5033534;28;69409;-36
2021/12/23 08:58:10;;;;;;;7.10;5.47;;;;;;;33.23;56.08;100747.00;5016808;28;66770;-35
2021/12/23 09:00:42;;;;;;;5.45;4.95;;;;;;;33.21;55.91;100739.13;5018270;28;69336;-35
2021/12/23 09:03:13;;;;;;;;;;;;;;;32.94;56.22;100727.91;5018273;28;67185;-35
2021/12/23 09:05:45;;;;;;;6.05;4.75;;;;;;;33.23;55.76;100736.97;5017977;28;69873;-36
2021/12/23 09:08:15;;;;;;;6.35;5.05;;;;;;;33.35;55.33;100751.38;5016193;28;67094;-35
2021/12/23 09:10:46;;;;;;;6.32;5.07;;;;;;;33.40;55.28;100744.38;5015949;28;70262;-35
2021/12/23 09:13:17;;;;;;;5.18;4.55;;;;;;;33.42;55.27;100755.84;5013864;28;65645;-34
2021/12/23 09:15:48;;;;;;;8.77;5.10;;;;;;;33.42;55.17;100758.56;5016182;28;69979;-36
2021/12/23 09:18:21;;;;;;;6.50;5.00;;;;;;;33.45;54.96;100775.22;5014390;28;65693;-35
2021/12/23 09:20:54;;;;;;;6.50;5.38;;;;;;;33.49;54.66;100768.25;5014438;28;70273;-35
2021/12/23 09:23:25;;;;;;;10.18;4.93;;;;;;;33.41;54.77;100759.63;5014331;28;66624;-35
2021/12/23 09:25:56;;;;;;;5.57;4.77;;;;;;;33.47;54.49;100769.53;5008939;28;70007;-35
2021/12/23 09:28:41;;;;;;;9.73;5.07;;;;;;;33.52;54.36;100777.81;5012292;28;65648;-35
2021/12/23 09:34:02;;;;;;;8.40;4.97;;;;;;;33.51;54.28;100776.97;5024423;28;66965;-35
2021/12/23 09:36:33;;;;;;;8.98;5.13;;;;;;;33.56;54.36;100773.56;5011392;28;69009;-35
2021/12/23 09:39:06;;;;;;;7.45;5.60;;;;;;;33.59;54.20;100792.94;5009231;28;66656;-35
2021/12/23 09:41:41;;;;;;;8.48;4.75;;;;;;;33.35;54.02;100751.38;5017211;28;70442;-36
2021/12/23 09:44:14;;;;;;;9.18;5.07;;;;;;;33.57;53.95;100791.53;5016066;28;66528;-36
2021/12/23 09:46:46;;;;;;;8.90;5.25;;;;;;;33.59;53.94;100794.84;5015350;28;69315;-35
2021/12/23 09:49:17;;;;;;;8.60;4.78;;;;;;;33.57;53.75;100805.13;5015284;28;66074;-35
2021/12/23 09:51:48;;;;;;;6.15;4.78;;;;;;;33.56;53.81;100807.00;5015805;28;70287;-35
2021/12/23 09:54:20;;;;;;;14.13;5.10;;;;;;;33.61;53.66;100809.03;5017402;28;66162;-35
2021/12/23 09:56:51;;;;;;;6.72;4.78;;;;;;;33.59;53.55;100811.16;5015355;28;69103;-35
2021/12/23 09:59:26;;;;;;;;;;;;;;;33.38;53.76;100813.41;5016133;28;66160;-35
2021/12/23 10:01:57;;;;;;;9.98;5.53;;;;;;;33.58;53.66;100820.38;5017360;28;69655;-35
2021/12/23 10:04:28;;;;;;;6.70;5.00;;;;;;;33.57;54.12;100822.28;5015093;28;65615;-35
2021/12/23 10:06:59;;;;;;;8.07;5.00;;;;;;;33.58;53.49;100820.38;5016974;28;70494;-36
2021/12/23 10:09:51;;;;;;;9.15;5.10;;;;;;;33.56;53.80;100828.78;5014539;28;66148;-36
2021/12/23 10:27:19;;;;;;;6.97;4.82;;;;;;;33.14;53.98;100830.81;5017413;28;66561;-35
2021/12/23 10:38:47;;;;;;;13.23;7.82;;;;;;;32.72;55.00;100909.66;5011222;28;65670;-36
2021/12/23 10:41:19;;;;;;;15.48;7.80;;;;;;;32.70;55.08;100909.06;5012026;28;69382;-35
2021/12/23 10:43:55;;;;;;;;;;;;;;;32.38;54.99;100909.28;5012197;28;66688;-39
2021/12/23 10:46:36;;;;;;;15.00;6.78;;;;;;;32.16;54.21;100867.41;5009299;28;70046;-36
2021/12/23 10:49:39;;;;;;;12.17;6.67;;;;;;;32.44;53.97;100935.50;5012605;28;65976;-36
2021/12/23 10:52:17;;;;;;;15.73;6.90;;;;;;;32.47;54.07;100940.50;5015565;28;69900;-35
2021/12/23 11:00:30;;;;;;;14.80;11.13;;;;;;;31.97;54.72;100913.56;5013788;28;43377;-36
2021/12/23 11:03:29;;;;;;;24.20;14.18;;;;;;;32.16;55.74;100948.81;5011485;28;69956;-36
2021/12/23 11:06:17;;;;;;;27.60;14.07;;;;;;;32.21;56.17;100970.69;5006595;28;66278;-36
2021/12/23 11:09:12;;;;;;;15.25;11.40;;;;;;;31.86;56.93;100927.84;5013077;28;69411;-36
2021/12/23 11:37:11;;;;;;;15.00;7.82;;;;;;;31.74;56.42;100973.06;5011802;28;70449;-35
2021/12/23 11:39:53;;;;;;;17.63;8.90;;;;;;;31.81;56.90;101003.63;5012114;28;67052;-35
2021/12/23 11:42:36;;;;;;;22.65;8.65;;;;;;;31.81;57.03;101012.59;5009763;28;69273;-36
2021/12/23 11:45:07;;;;;;;26.88;8.55;;;;;;;31.75;57.18;101012.66;5012291;28;66621;-36
2021/12/23 11:47:39;;;;;;;12.95;8.48;;;;;;;31.82;56.63;101021.59;5009303;28;70223;-36
2021/12/23 11:50:18;;;;;;;17.67;7.65;;;;;;;31.74;57.35;101027.31;5005450;28;66161;-36
2021/12/23 11:52:49;;;;;;;17.55;7.03;;;;;;;31.74;57.20;101032.72;5012520;28;69445;-36
2021/12/23 11:55:20;;;;;;;28.00;19.92;;;;;;;31.65;59.66;101031.31;5013206;28;66619;-37
2021/12/23 11:57:54;;;;;;;42.25;28.90;;;;;;;31.63;60.19;101036.16;5013167;28;68455;-35
2021/12/23 12:00:42;;;;;;;51.00;32.92;;;;;;;31.47;61.27;101016.66;5007697;28;65219;-36
2021/12/23 12:03:14;;;;;;;47.47;34.72;;;;;;;31.52;61.66;101033.09;5006167;28;70021;-35
2021/12/23 12:05:49;;;;;;;48.15;34.40;;;;;;;31.53;62.26;101042.88;5017025;28;65763;-37
2021/12/23 12:08:24;;;;;;;53.85;33.92;;;;;;;31.50;62.92;101051.47;5014711;28;70404;-36
2021/12/23 12:11:15;;;;;;;50.38;33.42;;;;;;;31.33;63.46;101037.59;5015639;28;65397;-35
2021/12/23 12:13:46;;;;;;;52.78;36.53;;;;;;;31.50;62.59;101048.75;5007179;28;69886;-38
2021/12/23 12:16:46;;;;;;;52.53;37.63;;;;;;;31.29;64.25;101060.78;5014802;28;65162;-37
2021/12/23 12:19:55;;;;;;;55.63;38.97;;;;;;;31.31;63.90;101065.97;5012365;28;70816;-37
2021/12/23 12:22:45;;;;;;;62.25;41.35;;;;;;;31.33;64.44;101070.13;5029400;28;65751;-35
2021/12/23 12:25:25;;;;;;;59.85;37.75;;;;;;;31.33;64.06;101072.00;5014951;28;70196;-35
2021/12/23 12:27:56;;;;;;;59.35;36.55;;;;;;;31.42;62.31;101078.03;4996808;28;66308;-36
2021/12/23 12:30:40;;;;;;;48.97;29.40;;;;;;;31.37;62.56;101081.38;5012118;28;69135;-36
2021/12/23 12:33:32;;;;;;;37.92;24.95;;;;;;;31.32;61.54;101087.44;5012675;28;66682;-36
2021/12/23 12:36:03;;;;;;;38.38;23.15;;;;;;;31.60;60.95;101087.06;5015440;28;69910;-35
2021/12/23 12:38:48;;;;;;;25.75;20.73;;;;;;;31.50;60.58;101043.34;5018030;28;66508;-34
2021/12/23 12:41:31;;;;;;;25.95;18.65;;;;;;;31.82;60.12;101090.22;5017212;28;69802;-35
2021/12/23 12:44:33;;;;;;;28.42;17.95;;;;;;;31.73;60.63;101086.16;5019017;28;66372;-35
2021/12/23 12:47:14;;;;;;;22.58;16.73;;;;;;;31.93;59.99;101104.13;5012185;28;69263;-35
2021/12/23 12:50:14;;;;;;;22.48;16.90;;;;;;;31.95;60.00;101105.56;5004334;28;65663;-34
2021/12/23 12:52:51;;;;;;;28.02;15.75;;;;;;;31.96;59.95;101101.00;5019397;28;70317;-35
2021/12/23 12:55:27;;;;;;;19.10;15.52;;;;;;;31.98;59.92;101105.16;5001782;28;64718;-35
2021/12/23 12:58:04;;;;;;;18.48;14.93;;;;;;;32.00;59.79;101105.75;5013085;28;68879;-34